createdAt,value
2018-05-17T04:09:49.646Z,74.86
2018-05-17T04:10:15.110Z,74.67
2018-05-17T04:10:40.598Z,74.86
2018-05-17T04:11:06.104Z,74.96
2018-05-17T04:11:31.568Z,75.05
2018-05-17T04:11:57.032Z,75.34
2018-05-17T04:12:22.512Z,75.15
2018-05-17T04:12:48.002Z,75.15
2018-05-17T04:13:13.465Z,76.1
2018-05-17T04:13:38.953Z,75.34
2018-05-17T04:14:04.424Z,75.15
2018-05-17T04:14:29.964Z,75.15
2018-05-17T04:14:55.461Z,76.01
2018-05-17T04:15:20.952Z,75.72
2018-05-17T04:15:46.446Z,76.01
2018-05-17T04:16:11.937Z,75.91
2018-05-17T04:16:37.407Z,75.72
2018-05-17T04:17:02.905Z,75.43
2018-05-17T04:17:28.414Z,75.53
2018-05-17T04:17:53.894Z,75.72
2018-05-17T04:18:19.359Z,75.24
2018-05-17T04:18:44.827Z,75.53
2018-05-17T04:19:10.299Z,75.24
2018-05-17T04:19:35.787Z,75.53
2018-05-17T04:20:01.276Z,75.53
2018-05-17T04:20:26.764Z,74.57
2018-05-17T04:20:52.230Z,74.77
2018-05-17T04:21:17.685Z,74.77
2018-05-17T04:21:43.195Z,74.77
2018-05-17T04:22:08.672Z,74.77
2018-05-17T04:22:34.134Z,74.86
2018-05-17T04:22:59.611Z,74.96
2018-05-17T04:23:25.118Z,75.15
2018-05-17T04:23:50.562Z,75.24
2018-05-17T04:24:16.056Z,74.86
2018-05-17T04:24:41.561Z,74.67
2018-05-17T04:25:07.038Z,75.24
2018-05-17T04:25:32.560Z,74.86
2018-05-17T04:25:58.077Z,74.96
2018-05-17T04:26:23.575Z,75.05
2018-05-17T04:26:49.042Z,74.73
2018-05-17T04:27:14.541Z,74.86
2018-05-17T04:27:40.064Z,74.96
2018-05-17T04:28:05.529Z,74.67
2018-05-17T04:28:31.235Z,74.67
2018-05-17T04:28:56.694Z,74.86
2018-05-17T04:29:22.188Z,74.57
2018-05-17T04:29:47.683Z,74.86
2018-05-17T04:30:13.208Z,74.96
2018-05-17T04:30:38.624Z,75.05
2018-05-17T04:31:04.112Z,74.67
2018-05-17T04:31:29.572Z,74.67
2018-05-17T04:31:55.056Z,74.86
2018-05-17T04:32:20.529Z,74.96
2018-05-17T04:32:46.110Z,74.96
2018-05-17T04:33:11.649Z,74.67
2018-05-17T04:33:37.120Z,74.67
2018-05-17T04:34:02.615Z,74.67
2018-05-17T04:34:28.138Z,74.57
2018-05-17T04:34:53.606Z,74.86
2018-05-17T04:35:19.097Z,74.77
2018-05-17T04:35:44.586Z,75.05
2018-05-17T04:36:10.133Z,75.05
2018-05-17T04:36:35.639Z,75.05
2018-05-17T04:37:01.137Z,75.05
2018-05-17T04:37:26.636Z,74.77
2018-05-17T04:37:52.137Z,74.86
2018-05-17T04:38:17.603Z,74.86
2018-05-17T04:38:43.111Z,74.86
2018-05-17T04:39:42.019Z,75.43
2018-05-17T04:40:07.511Z,75.34
2018-05-17T04:40:33.118Z,75.24
2018-05-17T04:40:58.497Z,75.24
2018-05-17T04:41:23.996Z,75.05
2018-05-17T04:41:49.441Z,75.34
2018-05-17T04:42:15.005Z,75.43
2018-05-17T04:42:40.501Z,75.24
2018-05-17T04:43:05.961Z,75.24
2018-05-17T04:43:31.503Z,75.43
2018-05-17T04:43:57.360Z,75.15
2018-05-17T04:44:22.935Z,75.24
2018-05-17T04:44:48.442Z,75.15
2018-05-17T04:45:13.931Z,75.24
2018-05-17T04:45:39.925Z,75.24
2018-05-17T04:46:05.585Z,75.15
2018-05-17T04:46:31.388Z,75.15
2018-05-17T04:46:57.469Z,75.34
2018-05-17T04:47:23.069Z,75.15
2018-05-17T04:47:48.798Z,75.34
2018-05-17T04:48:14.329Z,75.15
2018-05-17T04:48:39.891Z,75.15
2018-05-17T04:49:05.515Z,75.34
2018-05-17T04:49:31.169Z,75.15
2018-05-17T04:49:56.908Z,75.15
2018-05-17T04:50:22.334Z,75.24
2018-05-17T04:50:47.911Z,75.34
2018-05-17T04:51:13.546Z,75.05
2018-05-17T04:51:39.417Z,75.05
2018-05-17T04:52:04.922Z,75.15
2018-05-17T04:52:30.537Z,75.15
2018-05-17T04:52:56.145Z,74.86
2018-05-17T04:53:21.810Z,74.67
2018-05-17T04:53:47.310Z,74.86
2018-05-17T04:54:13.042Z,74.77
2018-05-17T04:54:38.730Z,74.96
2018-05-17T04:55:04.217Z,74.86
2018-05-17T04:55:29.788Z,74.86
2018-05-17T04:55:55.306Z,74.96
2018-05-17T04:56:20.760Z,74.96
2018-05-17T04:56:46.398Z,74.77
2018-05-17T04:57:12.038Z,74.19
2018-05-17T04:57:37.813Z,74.29
2018-05-17T04:58:03.490Z,74.38
2018-05-17T04:58:28.908Z,74.57
2018-05-17T04:59:42.919Z,74.57
2018-05-17T05:00:08.695Z,74.67
2018-05-17T05:00:34.309Z,74.48
2018-05-17T05:01:00.036Z,74.29
2018-05-17T05:01:25.648Z,74.48
2018-05-17T05:01:51.415Z,74.32
2018-05-17T05:02:16.869Z,74.57
2018-05-17T05:02:42.569Z,74.86
2018-05-17T05:03:08.109Z,74.57
2018-05-17T05:03:33.819Z,74.52
2018-05-17T05:03:59.450Z,74.57
2018-05-17T05:04:53.227Z,74.38
2018-05-17T05:05:18.802Z,74.8
2018-05-17T05:05:44.434Z,74.9
2018-05-17T05:06:10.039Z,74.52
2018-05-17T05:06:35.611Z,74.9
2018-05-17T05:07:01.354Z,74.71
2018-05-17T05:07:27.190Z,74.52
2018-05-17T05:07:52.963Z,74.8
2018-05-17T05:08:18.333Z,74.71
2018-05-17T05:08:44.010Z,74.32
2018-05-17T05:09:09.593Z,74.42
2018-05-17T05:09:35.194Z,74.52
2018-05-17T05:10:00.760Z,74.13
2018-05-17T05:10:26.619Z,73.94
2018-05-17T05:10:52.177Z,74.32
2018-05-17T05:11:17.804Z,73.85
2018-05-17T05:11:43.423Z,73.75
2018-05-17T05:12:09.136Z,73.75
2018-05-17T05:12:34.624Z,74.04
2018-05-17T05:13:00.170Z,74.04
2018-05-17T05:13:25.701Z,74.13
2018-05-17T05:13:51.344Z,73.56
2018-05-17T05:14:16.933Z,73.75
2018-05-17T05:14:42.478Z,73.08
2018-05-17T05:15:08.097Z,73.28
2018-05-17T05:15:33.527Z,72.51
2018-05-17T05:15:59.134Z,72.61
2018-05-17T05:16:24.716Z,72.71
2018-05-17T05:16:50.245Z,72.71
2018-05-17T05:17:15.882Z,72.89
2018-05-17T05:17:41.447Z,72.51
2018-05-17T05:18:06.944Z,72.89
2018-05-17T05:18:32.593Z,72.99
2018-05-17T05:18:58.178Z,72.8
2018-05-17T05:19:23.814Z,72.89
2018-05-17T05:19:49.390Z,72.99
2018-05-17T05:20:15.047Z,73.08
2018-05-17T05:20:40.581Z,73.08
2018-05-17T05:21:06.183Z,73.08
2018-05-17T05:21:31.666Z,73.37
2018-05-17T05:21:57.329Z,73.18
2018-05-17T05:22:23.032Z,73.18
2018-05-17T05:22:48.616Z,73.08
2018-05-17T05:23:14.172Z,73.08
2018-05-17T05:23:39.717Z,73.08
2018-05-17T05:24:05.235Z,73.18
2018-05-17T05:24:30.825Z,73.08
2018-05-17T05:24:56.345Z,73.08
2018-05-17T05:25:21.974Z,72.61
2018-05-17T05:25:47.700Z,72.51
2018-05-17T05:26:13.391Z,72.8
2018-05-17T05:26:39.065Z,72.99
2018-05-17T05:27:04.639Z,72.61
2018-05-17T05:27:30.271Z,72.71
2018-05-17T05:27:55.916Z,72.03
2018-05-17T05:28:21.525Z,71.66
2018-05-17T05:28:47.458Z,72.23
2018-05-17T05:29:12.912Z,72.42
2018-05-17T05:29:38.681Z,72.13
2018-05-17T05:30:04.344Z,72.13
2018-05-17T05:30:29.907Z,72.32
2018-05-17T05:30:55.561Z,72.23
2018-05-17T05:31:21.076Z,72.32
2018-05-17T05:31:46.646Z,71.66
2018-05-17T05:32:12.241Z,71.84
2018-05-17T05:32:37.928Z,71.56
2018-05-17T05:33:03.416Z,71.84
2018-05-17T05:33:28.980Z,71.84
2018-05-17T05:33:54.608Z,71.75
2018-05-17T05:34:20.656Z,72.03
2018-05-17T05:34:46.992Z,72.13
2018-05-17T05:35:12.603Z,72.03
2018-05-17T05:35:38.103Z,72.13
2018-05-17T05:36:03.702Z,71.94
2018-05-17T05:36:29.170Z,71.08
2018-05-17T05:36:54.670Z,70.61
2018-05-17T05:38:08.042Z,71.46
2018-05-17T05:38:33.527Z,71.66
2018-05-17T05:38:59.005Z,71.18
2018-05-17T05:39:24.492Z,71.18
2018-05-17T05:39:50.045Z,70.89
2018-05-17T05:40:15.558Z,71.18
2018-05-17T05:40:41.032Z,71.08
2018-05-17T05:41:06.526Z,71.18
2018-05-17T05:41:32.054Z,71.18
2018-05-17T05:41:57.538Z,71.18
2018-05-17T05:42:23.028Z,70.98
2018-05-17T05:42:48.532Z,70.7
2018-05-17T05:43:14.059Z,70.51
2018-05-17T05:43:39.479Z,70.42
2018-05-17T05:44:04.997Z,70.7
2018-05-17T05:44:30.469Z,70.22
2018-05-17T05:44:55.993Z,70.22
2018-05-17T05:45:21.482Z,70.22
2018-05-17T05:46:31.529Z,70.61
2018-05-17T05:46:57.020Z,70.61
2018-05-17T05:47:22.514Z,70.51
2018-05-17T05:47:47.991Z,70.7
2018-05-17T05:48:13.512Z,70.22
2018-05-17T05:48:39.002Z,70.32
2018-05-17T05:49:04.612Z,70.03
2018-05-17T05:49:30.161Z,70.61
2018-05-17T05:49:55.614Z,70.61
2018-05-17T05:50:21.120Z,70.51
2018-05-17T05:50:46.630Z,70.32
2018-05-17T05:51:12.163Z,70.22
2018-05-17T05:51:37.780Z,70.7
2018-05-17T05:52:03.185Z,70.32
2018-05-17T05:52:28.704Z,70.61
2018-05-17T05:52:54.212Z,70.61
2018-05-17T05:53:19.717Z,70.42
2018-05-17T05:53:45.199Z,70.32
2018-05-17T05:54:10.682Z,70.32
2018-05-17T05:54:36.204Z,70.13
2018-05-17T05:55:01.681Z,70.51
2018-05-17T05:55:27.164Z,70.13
2018-05-17T05:55:52.684Z,70.13
2018-05-17T05:56:18.167Z,70.13
2018-05-17T05:56:43.679Z,70.32
2018-05-17T05:57:09.154Z,70.79
2018-05-17T05:57:34.624Z,70.22
2018-05-17T05:58:00.086Z,70.51
2018-05-17T05:58:25.615Z,70.61
2018-05-17T05:58:51.100Z,70.42
2018-05-17T05:59:16.558Z,70.32
2018-05-17T05:59:42.056Z,70.32
2018-05-17T06:00:07.530Z,70.13
2018-05-17T06:01:21.167Z,70.32
2018-05-17T06:01:46.689Z,69.74
2018-05-17T06:02:12.177Z,70.42
2018-05-17T06:02:37.687Z,70.13
2018-05-17T06:03:35.713Z,70.03
2018-05-17T06:04:01.234Z,70.13
2018-05-17T06:04:26.674Z,70.51
2018-05-17T06:04:52.171Z,70.13
2018-05-17T06:05:17.700Z,70.03
2018-05-17T06:05:43.124Z,69.74
2018-05-17T06:06:08.641Z,70.22
2018-05-17T06:06:34.145Z,70.61
2018-05-17T06:06:59.630Z,69.74
2018-05-17T06:07:25.129Z,69.74
2018-05-17T06:07:50.666Z,69.65
2018-05-17T06:08:16.266Z,69.84
2018-05-17T06:08:41.639Z,70.13
2018-05-17T06:09:07.149Z,69.84
2018-05-17T06:09:32.647Z,69.93
2018-05-17T06:09:58.150Z,69.93
2018-05-17T06:10:23.623Z,69.46
2018-05-17T06:10:49.104Z,69.59
2018-05-17T06:11:14.774Z,69.37
2018-05-17T06:11:40.270Z,69.08
2018-05-17T06:12:05.764Z,68.88
2018-05-17T06:12:31.272Z,68.88
2018-05-17T06:12:56.767Z,69.27
2018-05-17T06:13:22.265Z,68.79
2018-05-17T06:13:47.755Z,69.08
2018-05-17T06:14:13.230Z,69.17
2018-05-17T06:14:38.712Z,69.56
2018-05-17T06:15:04.239Z,69.93
2018-05-17T06:15:29.730Z,69.84
2018-05-17T06:15:55.207Z,69.74
2018-05-17T06:16:20.715Z,70.13
2018-05-17T06:16:46.206Z,70.42
2018-05-17T06:17:11.710Z,70.13
2018-05-17T06:17:37.206Z,70.42
2018-05-17T06:18:02.690Z,70.7
2018-05-17T06:18:28.215Z,70.42
2018-05-17T06:18:53.799Z,70.03
2018-05-17T06:19:19.298Z,70.45
2018-05-17T06:19:44.826Z,70.22
2018-05-17T06:20:10.332Z,69.56
2018-05-17T06:20:35.827Z,70.51
2018-05-17T06:21:01.313Z,70.36
2018-05-17T06:21:26.788Z,69.74
2018-05-17T06:21:52.266Z,69.59
2018-05-17T06:22:17.765Z,69.31
2018-05-17T06:22:43.291Z,69.31
2018-05-17T06:23:46.451Z,69.59
2018-05-17T06:24:11.906Z,69.49
2018-05-17T06:24:37.398Z,69.4
2018-05-17T06:25:02.896Z,69.59
2018-05-17T06:25:28.437Z,69.21
2018-05-17T06:25:53.959Z,69.49
2018-05-17T06:26:19.380Z,69.31
2018-05-17T06:27:28.079Z,69.78
2018-05-17T06:27:53.591Z,69.21
2018-05-17T06:28:19.068Z,69.21
2018-05-17T06:28:44.552Z,68.92
2018-05-17T06:29:10.067Z,68.82
2018-05-17T06:29:35.731Z,68.26
2018-05-17T06:30:01.205Z,68.06
2018-05-17T06:30:26.901Z,68.54
2018-05-17T06:30:52.376Z,68.82
2018-05-17T06:31:17.856Z,68.73
2018-05-17T06:31:43.356Z,68.44
2018-05-17T06:32:08.835Z,68.82
2018-05-17T06:32:34.336Z,69.21
2018-05-17T06:32:59.843Z,69.11
2018-05-17T06:33:25.308Z,69.31
2018-05-17T06:33:50.805Z,68.82
2018-05-17T06:34:16.278Z,69.4
2018-05-17T06:34:41.764Z,69.11
2018-05-17T06:35:07.267Z,69.59
2018-05-17T06:35:32.763Z,69.49
2018-05-17T06:35:58.259Z,69.11
2018-05-17T06:36:23.773Z,68.82
2018-05-17T06:36:49.248Z,69.02
2018-05-17T06:37:14.741Z,69.11
2018-05-17T06:37:40.299Z,69.21
2018-05-17T06:38:05.705Z,69.11
2018-05-17T06:38:31.186Z,68.82
2018-05-17T06:38:56.708Z,68.82
2018-05-17T06:39:22.165Z,68.44
2018-05-17T06:39:47.719Z,68.35
2018-05-17T06:40:13.407Z,68.44
2018-05-17T06:40:39.224Z,67.97
2018-05-17T06:41:04.799Z,68.35
2018-05-17T06:41:30.546Z,68.73
2018-05-17T06:41:56.149Z,68.63
2018-05-17T06:42:21.847Z,68
2018-05-17T06:42:47.387Z,68
2018-05-17T06:43:12.894Z,68.16
2018-05-17T06:43:38.389Z,67.77
2018-05-17T06:44:03.869Z,68.06
2018-05-17T06:44:29.383Z,67.24
2018-05-17T06:44:54.894Z,67.68
2018-05-17T06:45:20.384Z,67.77
2018-05-17T06:45:45.879Z,68
2018-05-17T06:46:11.363Z,68.1
2018-05-17T06:46:36.851Z,67.71
2018-05-17T06:47:02.378Z,67.24
2018-05-17T06:47:27.904Z,67.24
2018-05-17T06:47:53.438Z,67.14
2018-05-17T06:48:18.931Z,67.21
2018-05-17T06:48:44.403Z,67.24
2018-05-17T06:49:09.896Z,67.52
2018-05-17T06:49:35.421Z,67.14
2018-05-17T06:50:00.929Z,67.43
2018-05-17T06:50:26.409Z,67.24
2018-05-17T06:50:51.903Z,67.33
2018-05-17T06:51:17.400Z,67.33
2018-05-17T06:51:42.898Z,67.24
2018-05-17T06:52:08.402Z,67.14
2018-05-17T06:52:33.919Z,67.4
2018-05-17T06:53:31.982Z,67.01
2018-05-17T06:53:57.508Z,67.21
2018-05-17T06:54:22.995Z,66.85
2018-05-17T06:54:48.498Z,67.01
2018-05-17T06:55:13.975Z,66.95
2018-05-17T06:55:39.460Z,67.4
2018-05-17T06:56:04.959Z,67.14
2018-05-17T06:56:30.443Z,67.3
2018-05-17T06:56:55.917Z,67.21
2018-05-17T06:57:21.379Z,67.24
2018-05-17T06:57:46.881Z,66.92
2018-05-17T06:58:12.370Z,67.24
2018-05-17T06:58:37.864Z,67.24
2018-05-17T06:59:03.354Z,67.14
2018-05-17T06:59:28.842Z,67.71
2018-05-17T06:59:54.325Z,67.71
2018-05-17T07:00:20.343Z,67.33
2018-05-17T07:00:45.854Z,67.24
2018-05-17T07:01:11.325Z,66.95
2018-05-17T07:01:36.807Z,67.14
2018-05-17T07:02:02.318Z,67.24
2018-05-17T07:02:27.833Z,67.05
2018-05-17T07:02:53.305Z,67.24
2018-05-17T07:03:18.807Z,67.24
2018-05-17T07:03:44.324Z,67.24
2018-05-17T07:04:09.812Z,67.05
2018-05-17T07:04:35.279Z,67.33
2018-05-17T07:05:00.773Z,67.33
2018-05-17T07:05:26.258Z,67.33
2018-05-17T07:05:51.776Z,67.14
2018-05-17T07:06:17.241Z,67.24
2018-05-17T07:06:42.756Z,67.33
2018-05-17T07:07:08.244Z,66.95
2018-05-17T07:07:33.759Z,66.56
2018-05-17T07:07:59.287Z,66.19
2018-05-17T07:08:24.779Z,66.76
2018-05-17T07:08:50.316Z,66.47
2018-05-17T07:09:15.758Z,66.47
2018-05-17T07:09:41.248Z,66.28
2018-05-17T07:10:06.721Z,66.19
2018-05-17T07:10:32.271Z,65.8
2018-05-17T07:10:57.722Z,65.33
2018-05-17T07:11:23.201Z,65.33
2018-05-17T07:11:48.719Z,65.33
2018-05-17T07:12:14.198Z,65.61
2018-05-17T07:12:39.673Z,65.61
2018-05-17T07:13:05.183Z,65.33
2018-05-17T07:13:30.688Z,65.42
2018-05-17T07:13:56.200Z,65.71
2018-05-17T07:15:09.487Z,65.17
2018-05-17T07:15:34.986Z,64.88
2018-05-17T07:16:00.490Z,65.07
2018-05-17T07:16:25.986Z,65.36
2018-05-17T07:16:51.470Z,65.36
2018-05-17T07:17:16.972Z,65.55
2018-05-17T07:17:42.473Z,65.36
2018-05-17T07:18:08.155Z,65.17
2018-05-17T07:18:33.727Z,64.91
2018-05-17T07:18:58.927Z,65.01
2018-05-17T07:19:24.406Z,63.76
2018-05-17T07:19:49.892Z,64.05
2018-05-17T07:20:15.365Z,63.57
2018-05-17T07:20:40.842Z,64.15
2018-05-17T07:21:06.329Z,63.48
2018-05-17T07:21:31.833Z,63.39
2018-05-17T07:21:57.325Z,63.57
2018-05-17T07:22:22.809Z,63.57
2018-05-17T07:22:48.294Z,63.67
2018-05-17T07:23:13.774Z,63.29
2018-05-17T07:23:39.274Z,63.39
2018-05-17T07:24:04.838Z,63.32
2018-05-17T07:24:30.286Z,62.94
2018-05-17T07:24:55.802Z,63.42
2018-05-17T07:25:21.291Z,63.32
2018-05-17T07:25:46.798Z,62.74
2018-05-17T07:26:12.283Z,63.03
2018-05-17T07:26:37.765Z,62.37
2018-05-17T07:27:03.320Z,62.46
2018-05-17T07:27:28.802Z,61.88
2018-05-17T07:27:54.300Z,61.69
2018-05-17T07:28:19.761Z,61.79
2018-05-17T07:28:45.277Z,61.51
2018-05-17T07:29:10.753Z,61.54
2018-05-17T07:29:36.249Z,61.6
2018-05-17T07:30:01.744Z,61.25
2018-05-17T07:30:27.248Z,60.48
2018-05-17T07:30:52.756Z,60.93
2018-05-17T07:31:18.314Z,60.45
2018-05-17T07:31:43.735Z,60.35
2018-05-17T07:32:09.221Z,60.35
2018-05-17T07:32:34.705Z,60.45
2018-05-17T07:33:00.206Z,60.45
2018-05-17T07:33:25.718Z,60.74
2018-05-17T07:33:51.233Z,59.97
2018-05-17T07:34:16.737Z,60.06
2018-05-17T07:34:42.228Z,60.06
2018-05-17T07:35:07.708Z,59.88
2018-05-17T07:35:33.204Z,59.97
2018-05-17T07:35:58.697Z,60.26
2018-05-17T07:36:24.204Z,60.55
2018-05-17T07:36:49.700Z,60.83
2018-05-17T07:37:15.153Z,60.64
2018-05-17T07:37:40.681Z,60.83
2018-05-17T07:38:06.194Z,61.22
2018-05-17T07:38:31.775Z,61.12
2018-05-17T07:38:57.242Z,60.83
2018-05-17T07:39:22.744Z,60.45
2018-05-17T07:39:48.259Z,60.8
2018-05-17T07:40:13.784Z,61.41
2018-05-17T07:40:39.231Z,61.6
2018-05-17T07:41:04.849Z,61.6
2018-05-17T07:41:30.371Z,61.22
2018-05-17T07:41:55.908Z,61.31
2018-05-17T07:42:21.423Z,61.51
2018-05-17T07:42:46.917Z,61.51
2018-05-17T07:43:12.490Z,61.31
2018-05-17T07:43:37.945Z,61.51
2018-05-17T07:44:03.455Z,61.22
2018-05-17T07:44:28.942Z,61.6
2018-05-17T07:44:54.410Z,61.6
2018-05-17T07:45:19.948Z,61.22
2018-05-17T07:45:45.395Z,61.02
2018-05-17T07:46:10.975Z,60.35
2018-05-17T07:46:36.865Z,59.78
2018-05-17T07:47:02.280Z,60.26
2018-05-17T07:47:28.021Z,59.59
2018-05-17T07:47:53.535Z,59.97
2018-05-17T07:48:19.217Z,60.45
2018-05-17T07:48:44.738Z,60.35
2018-05-17T07:49:10.411Z,60.77
2018-05-17T07:49:36.102Z,60.74
2018-05-17T07:50:01.714Z,60
2018-05-17T07:50:27.382Z,59.62
2018-05-17T07:50:53.032Z,59.62
2018-05-17T07:51:18.615Z,60.1
2018-05-17T07:51:44.174Z,60
2018-05-17T07:52:09.769Z,60.29
2018-05-17T07:52:35.489Z,59.43
2018-05-17T07:53:01.169Z,59.72
2018-05-17T07:53:26.810Z,59.43
2018-05-17T07:53:52.444Z,59.23
2018-05-17T07:54:17.940Z,59.14
2018-05-17T07:54:43.508Z,58.95
2018-05-17T07:55:09.046Z,59.23
2018-05-17T07:55:34.812Z,58.76
2018-05-17T07:56:00.382Z,58.76
2018-05-17T07:56:25.934Z,59.14
2018-05-17T07:56:51.546Z,59.33
2018-05-17T07:57:17.269Z,59.91
2018-05-17T07:57:42.875Z,59.43
2018-05-17T07:58:08.385Z,59.33
2018-05-17T07:58:33.998Z,59.08
2018-05-17T07:58:59.678Z,58.79
2018-05-17T07:59:25.336Z,58.88
2018-05-17T07:59:50.840Z,58.79
2018-05-17T08:00:16.357Z,58.88
2018-05-17T08:00:41.937Z,57.73
2018-05-17T08:01:07.379Z,58.4
2018-05-17T08:01:33.011Z,57.83
2018-05-17T08:01:58.650Z,57.95
2018-05-17T08:02:24.271Z,58.15
2018-05-17T08:02:49.833Z,58.53
2018-05-17T08:03:15.370Z,58.05
2018-05-17T08:03:41.052Z,58.44
2018-05-17T08:04:06.724Z,57.95
2018-05-17T08:04:32.212Z,57.48
2018-05-17T08:04:57.832Z,57.28
2018-05-17T08:05:23.403Z,57.19
2018-05-17T08:05:48.958Z,57.38
2018-05-17T08:06:14.495Z,57.57
2018-05-17T08:06:40.133Z,57.76
2018-05-17T08:07:05.682Z,57.38
2018-05-17T08:07:31.217Z,57.19
2018-05-17T08:07:57.617Z,57.38
2018-05-17T08:08:23.251Z,57.67
2018-05-17T08:08:49.075Z,57.86
2018-05-17T08:09:14.714Z,57.57
2018-05-17T08:09:40.440Z,57.45
2018-05-17T08:10:06.120Z,57.35
2018-05-17T08:10:31.785Z,57.54
2018-05-17T08:10:57.307Z,56.97
2018-05-17T08:11:22.883Z,57.26
2018-05-17T08:11:48.522Z,57.35
2018-05-17T08:12:14.074Z,57.54
2018-05-17T08:12:39.767Z,57.26
2018-05-17T08:13:05.295Z,57.35
2018-05-17T08:13:30.831Z,57.83
2018-05-17T08:13:56.388Z,58.02
2018-05-17T08:14:21.996Z,58.31
2018-05-17T08:14:47.539Z,58.22
2018-05-17T08:15:13.247Z,58.31
2018-05-17T08:15:39.191Z,57.45
2018-05-17T08:16:04.783Z,57.35
2018-05-17T08:16:30.660Z,56.87
2018-05-17T08:16:56.438Z,56.3
2018-05-17T08:17:22.136Z,56.87
2018-05-17T08:17:48.064Z,56.59
2018-05-17T08:18:13.523Z,57.26
2018-05-17T08:18:39.307Z,56.77
2018-05-17T08:19:04.912Z,56.1
2018-05-17T08:19:30.601Z,57.45
2018-05-17T08:19:56.351Z,57.26
2018-05-17T08:20:22.073Z,57.06
2018-05-17T08:20:47.739Z,57.06
2018-05-17T08:21:13.569Z,57.16
2018-05-17T08:21:39.175Z,57.26
2018-05-17T08:22:04.689Z,57.26
2018-05-17T08:22:30.292Z,56.59
2018-05-17T08:22:55.908Z,56.42
2018-05-17T08:23:21.592Z,56.52
2018-05-17T08:23:47.193Z,56.32
2018-05-17T08:24:12.845Z,56.71
2018-05-17T08:24:38.444Z,56.13
2018-05-17T08:25:04.287Z,56.52
2018-05-17T08:25:30.023Z,56.23
2018-05-17T08:25:55.552Z,56.52
2018-05-17T08:26:21.018Z,56.61
2018-05-17T08:26:46.871Z,56.42
2018-05-17T08:27:12.321Z,56.23
2018-05-17T08:27:38.117Z,56.71
2018-05-17T08:28:03.756Z,56.61
2018-05-17T08:28:29.321Z,56.81
2018-05-17T08:28:55.048Z,56.81
2018-05-17T08:29:20.525Z,56.52
2018-05-17T08:29:46.214Z,56.42
2018-05-17T08:30:12.060Z,56.99
2018-05-17T08:30:37.829Z,56.81
2018-05-17T08:31:03.526Z,56.32
2018-05-17T08:31:29.257Z,55.78
2018-05-17T08:31:54.879Z,55.27
2018-05-17T08:32:20.369Z,55.36
2018-05-17T08:32:45.888Z,54.89
2018-05-17T08:33:11.439Z,55.27
2018-05-17T08:33:37.249Z,54.79
2018-05-17T08:34:02.923Z,54.89
2018-05-17T08:34:28.565Z,55.18
2018-05-17T08:34:54.229Z,54.7
2018-05-17T08:35:19.846Z,54.34
2018-05-17T08:35:45.444Z,54.41
2018-05-17T08:36:11.140Z,54.7
2018-05-17T08:36:36.760Z,54.7
2018-05-17T08:37:02.280Z,54.99
2018-05-17T08:37:28.026Z,54.79
2018-05-17T08:37:53.774Z,54.7
2018-05-17T08:38:19.237Z,54.32
2018-05-17T08:38:44.976Z,55.18
2018-05-17T08:39:10.897Z,55.08
2018-05-17T08:39:36.782Z,55.18
2018-05-17T08:40:02.270Z,54.89
2018-05-17T08:40:27.893Z,55.36
2018-05-17T08:40:53.485Z,55.73
2018-05-17T08:41:19.136Z,56.2
2018-05-17T08:41:44.805Z,55.91
2018-05-17T08:42:10.548Z,56.01
2018-05-17T08:42:36.191Z,56.01
2018-05-17T08:43:02.088Z,55.73
2018-05-17T08:43:27.778Z,55.63
2018-05-17T08:43:53.338Z,55.91
2018-05-17T08:44:18.967Z,56.1
2018-05-17T08:44:44.644Z,56.2
2018-05-17T08:45:10.494Z,56.97
2018-05-17T08:45:36.254Z,57.26
2018-05-17T08:46:01.898Z,57.26
2018-05-17T08:46:27.528Z,57.45
2018-05-17T08:46:53.122Z,57.26
2018-05-17T08:47:18.934Z,57.35
2018-05-17T08:47:44.746Z,56.49
2018-05-17T08:48:10.562Z,56.77
2018-05-17T08:48:36.630Z,57.35
2018-05-17T08:49:02.222Z,57.45
2018-05-17T08:49:28.034Z,56.39
2018-05-17T08:49:53.609Z,56.52
2018-05-17T08:50:19.296Z,55.36
2018-05-17T08:50:45.026Z,54.99
2018-05-17T08:51:10.606Z,54.86
2018-05-17T08:51:36.153Z,54.48
2018-05-17T08:52:01.798Z,53.91
2018-05-17T08:52:27.383Z,54.48
2018-05-17T08:52:53.139Z,54.77
2018-05-17T08:53:18.776Z,55.24
2018-05-17T08:53:44.541Z,55.65
2018-05-17T08:54:10.030Z,55.65
2018-05-17T08:54:35.574Z,54.79
2018-05-17T08:55:01.097Z,54.99
2018-05-17T08:55:26.786Z,54.99
2018-05-17T08:55:52.406Z,54.79
2018-05-17T08:56:18.251Z,54.6
2018-05-17T08:56:43.708Z,55.27
2018-05-17T08:57:09.671Z,54.99
2018-05-17T08:57:35.194Z,55.65
2018-05-17T08:58:01.453Z,55.75
2018-05-17T08:58:27.116Z,55.78
2018-05-17T08:58:52.679Z,55.78
2018-05-17T08:59:18.292Z,54.91
2018-05-17T08:59:44.083Z,55.11
2018-05-17T09:00:10.056Z,54.63
2018-05-17T09:00:35.518Z,54.08
2018-05-17T09:01:44.175Z,53.6
2018-05-17T09:02:09.833Z,53.7
2018-05-17T09:02:35.385Z,53.6
2018-05-17T09:03:00.908Z,53.31
2018-05-17T09:03:26.637Z,52.83
2018-05-17T09:03:52.061Z,52.74
2018-05-17T09:04:17.633Z,52.74
2018-05-17T09:04:43.352Z,53.12
2018-05-17T09:05:09.198Z,53.7
2018-05-17T09:05:34.728Z,53.41
2018-05-17T09:06:00.646Z,52.93
2018-05-17T09:06:26.164Z,53.89
2018-05-17T09:06:51.861Z,53
2018-05-17T09:07:17.465Z,52.55
2018-05-17T09:07:43.200Z,52.55
2018-05-17T09:08:08.781Z,52.71
2018-05-17T09:08:34.494Z,52.62
2018-05-17T09:09:00.223Z,52.71
2018-05-17T09:09:25.704Z,52.71
2018-05-17T09:09:51.395Z,52.62
2018-05-17T09:10:17.039Z,52.62
2018-05-17T09:10:42.685Z,53.09
2018-05-17T09:11:08.409Z,53.67
2018-05-17T09:11:34.008Z,53.67
2018-05-17T09:11:59.715Z,53.38
2018-05-17T09:12:25.343Z,53.67
2018-05-17T09:12:51.132Z,53.96
2018-05-17T09:13:16.761Z,53.58
2018-05-17T09:13:42.456Z,53.48
2018-05-17T09:14:08.167Z,53.64
2018-05-17T09:14:33.952Z,53.26
2018-05-17T09:14:59.475Z,53.96
2018-05-17T09:15:25.398Z,53.96
2018-05-17T09:15:51.014Z,53.86
2018-05-17T09:16:16.640Z,54.72
2018-05-17T09:16:42.263Z,54.72
2018-05-17T09:17:07.953Z,54.53
2018-05-17T09:17:33.667Z,54.24
2018-05-17T09:17:59.096Z,54.72
2018-05-17T09:18:24.564Z,54.85
2018-05-17T09:18:50.385Z,55.11
2018-05-17T09:19:16.063Z,55.04
2018-05-17T09:19:41.761Z,55.33
2018-05-17T09:20:07.466Z,54.85
2018-05-17T09:20:33.258Z,55.33
2018-05-17T09:20:58.929Z,54.68
2018-05-17T09:21:24.451Z,53.91
2018-05-17T09:21:50.234Z,54.01
2018-05-17T09:22:15.851Z,53.53
2018-05-17T09:22:41.594Z,53.72
2018-05-17T09:23:07.192Z,53.82
2018-05-17T09:23:32.868Z,53.63
2018-05-17T09:23:58.470Z,52.76
2018-05-17T09:24:24.216Z,52.28
2018-05-17T09:24:49.687Z,52.48
2018-05-17T09:25:15.258Z,52.67
2018-05-17T09:25:40.907Z,52.86
2018-05-17T09:26:06.463Z,53.15
2018-05-17T09:26:32.309Z,52.86
2018-05-17T09:26:58.130Z,52.57
2018-05-17T09:27:23.651Z,52.76
2018-05-17T09:27:49.196Z,52.67
2018-05-17T09:28:15.065Z,52.67
2018-05-17T09:28:40.733Z,52.76
2018-05-17T09:29:06.940Z,53.15
2018-05-17T09:29:32.448Z,53.53
2018-05-17T09:29:58.060Z,53.15
2018-05-17T09:30:23.724Z,53.05
2018-05-17T09:30:49.329Z,52.76
2018-05-17T09:31:15.143Z,52.55
2018-05-17T09:31:41.568Z,52.64
2018-05-17T09:32:07.217Z,52.93
2018-05-17T09:32:32.661Z,53.5
2018-05-17T09:32:58.390Z,54.01
2018-05-17T09:33:23.891Z,53.5
2018-05-17T09:33:49.572Z,54.3
2018-05-17T09:34:15.089Z,53.72
2018-05-17T09:34:40.777Z,54.01
2018-05-17T09:35:06.292Z,53.44
2018-05-17T09:35:31.839Z,53.82
2018-05-17T09:35:57.625Z,53.53
2018-05-17T09:36:23.161Z,52.95
2018-05-17T09:36:48.683Z,52.67
2018-05-17T09:37:14.433Z,52.95
2018-05-17T09:37:40.195Z,53.53
2018-05-17T09:38:05.806Z,54.01
2018-05-17T09:38:31.536Z,53.63
2018-05-17T09:38:57.074Z,53.72
2018-05-17T09:39:22.645Z,54.01
2018-05-17T09:39:48.359Z,53.72
2018-05-17T09:40:13.837Z,53.72
2018-05-17T09:40:39.257Z,53.91
2018-05-17T09:41:05.075Z,53.72
2018-05-17T09:41:30.531Z,53.72
2018-05-17T09:41:56.111Z,52.86
2018-05-17T09:42:21.805Z,53.15
2018-05-17T09:42:47.337Z,53.53
2018-05-17T09:43:13.027Z,53.63
2018-05-17T09:43:38.594Z,53.72
2018-05-17T09:44:04.115Z,53.63
2018-05-17T09:44:29.667Z,53.91
2018-05-17T09:44:55.280Z,53.72
2018-05-17T09:45:20.938Z,53.91
2018-05-17T09:45:46.831Z,54.01
2018-05-17T09:46:12.445Z,53.72
2018-05-17T09:46:38.155Z,53.15
2018-05-17T09:47:03.691Z,53.24
2018-05-17T09:47:29.248Z,53.34
2018-05-17T09:47:54.775Z,53.05